sensor_id;sensor_type;location;lat;lon;timestamp;pressure;altitude;pressure_sealevel;temperature;humidity
73306;BME280;61530;51.158;0.880;2023-05-14T00:00:16;1020.04;;;10.5625;38.1056
73306;BME280;61530;51.158;0.880;2023-05-14T00:01:18;1020.04;;;10.625;38.1136
73306;BME280;61530;51.158;0.880;2023-05-14T00:02:22;1020.05;;;10.5;38.0495
73306;BME280;61530;51.158;0.880;2023-05-14T00:03:25;1020.01;;;10.5;38.4177
73306;BME280;61530;51.158;0.880;2023-05-14T00:04:31;1019.99;;;10.5;37.8133
73306;BME280;61530;51.158;0.880;2023-05-14T00:05:35;1019.95;;;10.5;37.5869
73306;BME280;61530;51.158;0.880;2023-05-14T00:06:38;1019.94;;;10.625;37.4359
73306;BME280;61530;51.158;0.880;2023-05-14T00:07:42;1019.95;;;10.625;36.7132
73306;BME280;61530;51.158;0.880;2023-05-14T00:08:47;1019.92;;;10.625;38.0785
73306;BME280;61530;51.158;0.880;2023-05-14T00:09:50;1019.9;;;10.625;37.4483
73306;BME280;61530;51.158;0.880;2023-05-14T00:10:54;1019.87;;;10.5625;36.9275
73306;BME280;61530;51.158;0.880;2023-05-14T00:11:57;1019.88;;;10.5625;37.517
73306;BME280;61530;51.158;0.880;2023-05-14T00:13:03;1019.86;;;10.625;36.7314
73306;BME280;61530;51.158;0.880;2023-05-14T00:14:07;1019.87;;;10.625;37.1994
73306;BME280;61530;51.158;0.880;2023-05-14T00:15:10;1019.87;;;10.5625;37.5409
73306;BME280;61530;51.158;0.880;2023-05-14T00:16:13;1019.89;;;10.5;37.7728
73306;BME280;61530;51.158;0.880;2023-05-14T00:17:19;1019.85;;;10.625;36.8771
73306;BME280;61530;51.158;0.880;2023-05-14T00:18:22;1019.87;;;10.625;36.8068
73306;BME280;61530;51.158;0.880;2023-05-14T00:19:26;1019.87;;;10.625;37.2744
73306;BME280;61530;51.158;0.880;2023-05-14T00:20:30;1019.84;;;10.625;36.6102
73306;BME280;61530;51.158;0.880;2023-05-14T00:21:35;1019.84;;;10.625;37.1364
73306;BME280;61530;51.158;0.880;2023-05-14T00:22:39;1019.86;;;10.5625;37.3921
73306;BME280;61530;51.158;0.880;2023-05-14T00:23:42;1019.83;;;10.625;36.9195
73306;BME280;61530;51.158;0.880;2023-05-14T00:24:46;1019.8;;;10.5;37.0521
73306;BME280;61530;51.158;0.880;2023-05-14T00:25:51;1019.77;;;10.5625;36.8292
73306;BME280;61530;51.158;0.880;2023-05-14T00:26:54;1019.79;;;10.5;37.9293
73306;BME280;61530;51.158;0.880;2023-05-14T00:27:58;1019.74;;;10.4375;37.8774
73306;BME280;61530;51.158;0.880;2023-05-14T00:29:02;1019.72;;;10.5;37.7067
73306;BME280;61530;51.158;0.880;2023-05-14T00:30:07;1019.73;;;10.5;37.5098
73306;BME280;61530;51.158;0.880;2023-05-14T00:31:11;1019.71;;;10.4375;38.1656
73306;BME280;61530;51.158;0.880;2023-05-14T00:32:14;1019.76;;;10.4375;37.6643
73306;BME280;61530;51.158;0.880;2023-05-14T00:33:18;1019.73;;;10.3125;37.3804
73306;BME280;61530;51.158;0.880;2023-05-14T00:34:24;1019.72;;;10.375;36.914
73306;BME280;61530;51.158;0.880;2023-05-14T00:35:27;1019.74;;;10.4375;37.775
73306;BME280;61530;51.158;0.880;2023-05-14T00:36:30;1019.77;;;10.5;38.0152
73306;BME280;61530;51.158;0.880;2023-05-14T00:37:33;1019.73;;;10.4375;37.5418
73306;BME280;61530;51.158;0.880;2023-05-14T00:38:39;1019.72;;;10.4375;37.2199
73306;BME280;61530;51.158;0.880;2023-05-14T00:39:43;1019.71;;;10.5;36.6949
73306;BME280;61530;51.158;0.880;2023-05-14T00:40:46;1019.68;;;10.5;37.5769
73306;BME280;61530;51.158;0.880;2023-05-14T00:41:49;1019.72;;;10.4375;37.5891
73306;BME280;61530;51.158;0.880;2023-05-14T00:42:55;1019.7;;;10.5;37.8669
73306;BME280;61530;51.158;0.880;2023-05-14T00:43:58;1019.68;;;10.4375;37.7974
73306;BME280;61530;51.158;0.880;2023-05-14T00:45:03;1019.72;;;10.375;37.145
73306;BME280;61530;51.158;0.880;2023-05-14T00:46:06;1019.62;;;10.4375;37.0547
73306;BME280;61530;51.158;0.880;2023-05-14T00:47:11;1019.68;;;10.4375;38.3859
73306;BME280;61530;51.158;0.880;2023-05-14T00:48:15;1019.64;;;10.375;38.6508
73306;BME280;61530;51.158;0.880;2023-05-14T00:49:18;1019.64;;;10.375;38.3743
73306;BME280;61530;51.158;0.880;2023-05-14T00:50:22;1019.65;;;10.375;38.4028
73306;BME280;61530;51.158;0.880;2023-05-14T00:51:27;1019.65;;;10.375;37.9008
73306;BME280;61530;51.158;0.880;2023-05-14T00:52:31;1019.59;;;10.375;38.0972
73306;BME280;61530;51.158;0.880;2023-05-14T00:53:35;1019.58;;;10.375;38.2592
73306;BME280;61530;51.158;0.880;2023-05-14T00:54:38;1019.59;;;10.375;37.6997
73306;BME280;61530;51.158;0.880;2023-05-14T00:55:44;1019.55;;;10.3125;38.1779
73306;BME280;61530;51.158;0.880;2023-05-14T00:56:47;1019.54;;;10.25;38.0979
73306;BME280;61530;51.158;0.880;2023-05-14T00:57:50;1019.55;;;10.3125;38.3569
73306;BME280;61530;51.158;0.880;2023-05-14T00:58:54;1019.5;;;10.25;38.161
73306;BME280;61530;51.158;0.880;2023-05-14T01:00:00;1019.5;;;10.1875;37.9937
73306;BME280;61530;51.158;0.880;2023-05-14T01:01:03;1019.5;;;10.25;37.7975
73306;BME280;61530;51.158;0.880;2023-05-14T01:02:06;1019.47;;;10.1875;37.9822
73306;BME280;61530;51.158;0.880;2023-05-14T01:03:09;1019.48;;;10.1875;38.4839
73306;BME280;61530;51.158;0.880;2023-05-14T01:04:15;1019.5;;;10.125;38.8007
73306;BME280;61530;51.158;0.880;2023-05-14T01:05:19;1019.52;;;10.125;38.5866
73306;BME280;61530;51.158;0.880;2023-05-14T01:06:28;1019.52;;;10.125;38.3851
73306;BME280;61530;51.158;0.880;2023-05-14T01:07:32;1019.54;;;10.125;37.9581
73306;BME280;61530;51.158;0.880;2023-05-14T01:08:49;1019.53;;;10.125;36.9663
73306;BME280;61530;51.158;0.880;2023-05-14T01:09:41;1019.54;;;10.0625;37.2448
73306;BME280;61530;51.158;0.880;2023-05-14T01:10:44;1019.55;;;10.125;37.7751
73306;BME280;61530;51.158;0.880;2023-05-14T01:11:49;1019.56;;;10.125;37.6474
73306;BME280;61530;51.158;0.880;2023-05-14T01:12:55;1019.57;;;10.1875;37.9941
73306;BME280;61530;51.158;0.880;2023-05-14T01:14:00;1019.54;;;10.1875;37.7459
73306;BME280;61530;51.158;0.880;2023-05-14T01:14:58;1019.54;;;10.125;38.4608
73306;BME280;61530;51.158;0.880;2023-05-14T01:15:59;1019.53;;;10.125;36.5319
73306;BME280;61530;51.158;0.880;2023-05-14T01:17:04;1019.56;;;10.125;37.6074
73306;BME280;61530;51.158;0.880;2023-05-14T01:18:08;1019.55;;;10.1875;37.7863
73306;BME280;61530;51.158;0.880;2023-05-14T01:19:26;1019.58;;;10.1875;37.5498
73306;BME280;61530;51.158;0.880;2023-05-14T01:20:14;1019.58;;;10.125;37.5101
73306;BME280;61530;51.158;0.880;2023-05-14T01:21:35;1019.57;;;10.1875;38.1509
73306;BME280;61530;51.158;0.880;2023-05-14T01:22:23;1019.56;;;10.125;37.1926
73306;BME280;61530;51.158;0.880;2023-05-14T01:23:26;1019.55;;;10.1875;37.9757
73306;BME280;61530;51.158;0.880;2023-05-14T01:24:29;1019.55;;;10.25;37.8037
73306;BME280;61530;51.158;0.880;2023-05-14T01:25:36;1019.57;;;10.125;37.4407
73306;BME280;61530;51.158;0.880;2023-05-14T01:26:38;1019.56;;;10.1875;37.873
73306;BME280;61530;51.158;0.880;2023-05-14T01:27:48;1019.58;;;10.25;37.2792
73306;BME280;61530;51.158;0.880;2023-05-14T01:28:47;1019.56;;;10.125;37.4352
73306;BME280;61530;51.158;0.880;2023-05-14T01:29:55;1019.6;;;10.1875;38.2812
73306;BME280;61530;51.158;0.880;2023-05-14T01:30:59;1019.59;;;10.125;38.3452
73306;BME280;61530;51.158;0.880;2023-05-14T01:31:59;1019.58;;;10.1875;37.7975
73306;BME280;61530;51.158;0.880;2023-05-14T01:33:05;1019.55;;;10.125;38.2252
73306;BME280;61530;51.158;0.880;2023-05-14T01:34:08;1019.55;;;10.1875;37.9478
73306;BME280;61530;51.158;0.880;2023-05-14T01:35:11;1019.54;;;10.25;37.9194
73306;BME280;61530;51.158;0.880;2023-05-14T01:36:14;1019.51;;;10.125;37.3611
73306;BME280;61530;51.158;0.880;2023-05-14T01:37:18;1019.51;;;10.25;38.0867
73306;BME280;61530;51.158;0.880;2023-05-14T01:38:23;1019.54;;;10.125;37.7522
73306;BME280;61530;51.158;0.880;2023-05-14T01:39:27;1019.49;;;10.1875;37.4411
73306;BME280;61530;51.158;0.880;2023-05-14T01:40:31;1019.49;;;10.25;39.2606
73306;BME280;61530;51.158;0.880;2023-05-14T01:41:34;1019.46;;;10.125;37.3149
73306;BME280;61530;51.158;0.880;2023-05-14T01:42:40;1019.43;;;10.125;38.2708
73306;BME280;61530;51.158;0.880;2023-05-14T01:43:45;1019.42;;;10.1875;37.6607
73306;BME280;61530;51.158;0.880;2023-05-14T01:44:46;1019.42;;;10.125;37.9252
73306;BME280;61530;51.158;0.880;2023-05-14T01:45:49;1019.4;;;10.1875;37.6446
73306;BME280;61530;51.158;0.880;2023-05-14T01:46:55;1019.39;;;10.1875;37.4988
73306;BME280;61530;51.158;0.880;2023-05-14T01:47:59;1019.37;;;10.0625;37.1526
73306;BME280;61530;51.158;0.880;2023-05-14T01:49:02;1019.37;;;10.125;37.3023
73306;BME280;61530;51.158;0.880;2023-05-14T01:50:06;1019.38;;;10.125;37.6261
73306;BME280;61530;51.158;0.880;2023-05-14T01:51:11;1019.39;;;10.0;37.8959
73306;BME280;61530;51.158;0.880;2023-05-14T01:52:14;1019.35;;;10.125;38.2004
73306;BME280;61530;51.158;0.880;2023-05-14T01:53:18;1019.36;;;10.125;37.3644
73306;BME280;61530;51.158;0.880;2023-05-14T01:54:21;1019.37;;;10.0625;37.1737
73306;BME280;61530;51.158;0.880;2023-05-14T01:55:27;1019.4;;;10.1875;36.6086
73306;BME280;61530;51.158;0.880;2023-05-14T01:56:31;1019.41;;;10.125;36.8967
73306;BME280;61530;51.158;0.880;2023-05-14T01:57:34;1019.4;;;10.125;37.0015
73306;BME280;61530;51.158;0.880;2023-05-14T01:58:37;1019.37;;;10.125;36.7191
73306;BME280;61530;51.158;0.880;2023-05-14T01:59:43;1019.4;;;10.125;38.2376
73306;BME280;61530;51.158;0.880;2023-05-14T02:00:46;1019.41;;;10.125;38.3227
73306;BME280;61530;51.158;0.880;2023-05-14T02:01:50;1019.43;;;10.125;38.064
73306;BME280;61530;51.158;0.880;2023-05-14T02:02:53;1019.43;;;10.0625;37.452
73306;BME280;61530;51.158;0.880;2023-05-14T02:03:59;1019.45;;;10.0625;37.4346
73306;BME280;61530;51.158;0.880;2023-05-14T02:05:03;1019.42;;;10.0625;37.6085
73306;BME280;61530;51.158;0.880;2023-05-14T02:06:06;1019.42;;;10.0;37.8974
73306;BME280;61530;51.158;0.880;2023-05-14T02:07:10;1019.39;;;10.0;37.5228
73306;BME280;61530;51.158;0.880;2023-05-14T02:08:15;1019.38;;;10.0625;37.0655
73306;BME280;61530;51.158;0.880;2023-05-14T02:09:18;1019.33;;;10.0;37.3555
73306;BME280;61530;51.158;0.880;2023-05-14T02:10:22;1019.31;;;10.0;38.0238
73306;BME280;61530;51.158;0.880;2023-05-14T02:11:25;1019.35;;;10.0625;38.008
73306;BME280;61530;51.158;0.880;2023-05-14T02:12:31;1019.37;;;10.0;37.7237
73306;BME280;61530;51.158;0.880;2023-05-14T02:13:35;1019.37;;;9.9375;37.2108
73306;BME280;61530;51.158;0.880;2023-05-14T02:14:38;1019.37;;;10.0;36.6448
73306;BME280;61530;51.158;0.880;2023-05-14T02:15:42;1019.34;;;10.0;37.2808
73306;BME280;61530;51.158;0.880;2023-05-14T02:16:47;1019.33;;;10.0625;37.7234
73306;BME280;61530;51.158;0.880;2023-05-14T02:17:50;1019.27;;;9.9375;37.1637
73306;BME280;61530;51.158;0.880;2023-05-14T02:18:54;1019.24;;;10.0625;36.921
73306;BME280;61530;51.158;0.880;2023-05-14T02:19:57;1019.21;;;10.0;36.8515
73306;BME280;61530;51.158;0.880;2023-05-14T02:21:03;1019.16;;;10.0;36.8708
73306;BME280;61530;51.158;0.880;2023-05-14T02:22:07;1019.13;;;9.9375;37.0086
73306;BME280;61530;51.158;0.880;2023-05-14T02:23:10;1019.08;;;10.0;37.5729
73306;BME280;61530;51.158;0.880;2023-05-14T02:24:14;1019.09;;;9.9375;37.436
73306;BME280;61530;51.158;0.880;2023-05-14T02:25:19;1019.07;;;9.9375;37.6444
73306;BME280;61530;51.158;0.880;2023-05-14T02:26:23;1019.07;;;9.875;37.9605
73306;BME280;61530;51.158;0.880;2023-05-14T02:27:26;1019.06;;;9.875;37.3435
73306;BME280;61530;51.158;0.880;2023-05-14T02:28:29;1019.02;;;9.75;37.5169
73306;BME280;61530;51.158;0.880;2023-05-14T02:29:35;1019.0;;;9.875;37.5916
73306;BME280;61530;51.158;0.880;2023-05-14T02:30:39;1018.96;;;9.8125;36.7964
73306;BME280;61530;51.158;0.880;2023-05-14T02:31:42;1018.98;;;9.875;36.7519
73306;BME280;61530;51.158;0.880;2023-05-14T02:32:45;1019.0;;;9.875;38.7501
73306;BME280;61530;51.158;0.880;2023-05-14T02:33:51;1019.02;;;9.875;38.4503
73306;BME280;61530;51.158;0.880;2023-05-14T02:34:54;1019.02;;;9.875;37.3062
73306;BME280;61530;51.158;0.880;2023-05-14T02:35:58;1019.06;;;9.75;37.979
73306;BME280;61530;51.158;0.880;2023-05-14T02:37:02;1019.05;;;9.75;37.8633
73306;BME280;61530;51.158;0.880;2023-05-14T02:38:07;1019.09;;;9.75;37.8343
73306;BME280;61530;51.158;0.880;2023-05-14T02:39:11;1019.06;;;9.75;38.5668
73306;BME280;61530;51.158;0.880;2023-05-14T02:40:14;1019.1;;;9.75;38.1628
73306;BME280;61530;51.158;0.880;2023-05-14T02:41:18;1019.1;;;9.875;37.8629
73306;BME280;61530;51.158;0.880;2023-05-14T02:42:23;1019.1;;;9.75;37.5235
73306;BME280;61530;51.158;0.880;2023-05-14T02:43:26;1019.1;;;9.8125;37.8225
73306;BME280;61530;51.158;0.880;2023-05-14T02:44:30;1019.07;;;9.75;37.2348
73306;BME280;61530;51.158;0.880;2023-05-14T02:45:34;1019.1;;;9.875;37.6257
73306;BME280;61530;51.158;0.880;2023-05-14T02:46:39;1019.08;;;9.8125;38.5322
73306;BME280;61530;51.158;0.880;2023-05-14T02:47:43;1019.08;;;9.8125;37.6752
73306;BME280;61530;51.158;0.880;2023-05-14T02:48:46;1019.09;;;9.6875;38.3593
73306;BME280;61530;51.158;0.880;2023-05-14T02:49:50;1019.08;;;9.75;38.9233
73306;BME280;61530;51.158;0.880;2023-05-14T02:50:55;1019.1;;;9.6875;39.0498
73306;BME280;61530;51.158;0.880;2023-05-14T02:51:58;1019.11;;;9.625;38.929
73306;BME280;61530;51.158;0.880;2023-05-14T02:53:02;1019.11;;;9.6875;37.9233
73306;BME280;61530;51.158;0.880;2023-05-14T02:54:05;1019.1;;;9.6875;38.3086
73306;BME280;61530;51.158;0.880;2023-05-14T02:55:11;1019.12;;;9.6875;38.8196
73306;BME280;61530;51.158;0.880;2023-05-14T02:56:15;1019.13;;;9.6875;38.4916
73306;BME280;61530;51.158;0.880;2023-05-14T02:57:18;1019.14;;;9.6875;38.4573
73306;BME280;61530;51.158;0.880;2023-05-14T02:58:21;1019.09;;;9.6875;38.389
73306;BME280;61530;51.158;0.880;2023-05-14T02:59:27;1019.09;;;9.6875;38.412
73306;BME280;61530;51.158;0.880;2023-05-14T03:00:30;1019.11;;;9.75;38.8598
73306;BME280;61530;51.158;0.880;2023-05-14T03:01:34;1019.09;;;9.625;38.5495
73306;BME280;61530;51.158;0.880;2023-05-14T03:02:38;1019.08;;;9.6875;38.0784
73306;BME280;61530;51.158;0.880;2023-05-14T03:03:43;1019.05;;;9.625;38.9232
73306;BME280;61530;51.158;0.880;2023-05-14T03:04:47;1019.04;;;9.625;38.1995
73306;BME280;61530;51.158;0.880;2023-05-14T03:05:50;1019.03;;;9.625;38.9529
73306;BME280;61530;51.158;0.880;2023-05-14T03:06:54;1019.01;;;9.625;38.9294
73306;BME280;61530;51.158;0.880;2023-05-14T03:07:59;1019.02;;;9.6875;38.5895
73306;BME280;61530;51.158;0.880;2023-05-14T03:09:03;1019.0;;;9.625;40.1177
73306;BME280;61530;51.158;0.880;2023-05-14T03:10:07;1019.02;;;9.625;39.3947
73306;BME280;61530;51.158;0.880;2023-05-14T03:11:09;1019.01;;;9.625;38.7112
73306;BME280;61530;51.158;0.880;2023-05-14T03:12:15;1019.0;;;9.5625;38.8314
73306;BME280;61530;51.158;0.880;2023-05-14T03:13:19;1019.02;;;9.625;38.7624
73306;BME280;61530;51.158;0.880;2023-05-14T03:14:22;1018.97;;;9.5625;38.5844
73306;BME280;61530;51.158;0.880;2023-05-14T03:15:25;1019.0;;;9.625;37.2676
73306;BME280;61530;51.158;0.880;2023-05-14T03:16:31;1019.01;;;9.5625;37.7206
73306;BME280;61530;51.158;0.880;2023-05-14T03:17:34;1019.01;;;9.5625;38.0137
73306;BME280;61530;51.158;0.880;2023-05-14T03:18:38;1019.03;;;9.625;38.3647
73306;BME280;61530;51.158;0.880;2023-05-14T03:19:41;1019.03;;;9.625;38.1688
73306;BME280;61530;51.158;0.880;2023-05-14T03:20:47;1019.06;;;9.6875;37.7091
73306;BME280;61530;51.158;0.880;2023-05-14T03:21:51;1019.03;;;9.625;37.9552
73306;BME280;61530;51.158;0.880;2023-05-14T03:22:54;1019.02;;;9.5625;37.49
73306;BME280;61530;51.158;0.880;2023-05-14T03:23:58;1018.99;;;9.625;37.9384
73306;BME280;61530;51.158;0.880;2023-05-14T03:25:04;1018.97;;;9.625;36.8049
73306;BME280;61530;51.158;0.880;2023-05-14T03:26:06;1018.95;;;9.5625;37.5949
73306;BME280;61530;51.158;0.880;2023-05-14T03:27:10;1018.98;;;9.5625;37.6306
73306;BME280;61530;51.158;0.880;2023-05-14T03:28:13;1018.97;;;9.4375;38.6078
73306;BME280;61530;51.158;0.880;2023-05-14T03:29:19;1018.91;;;9.5;38.8376
73306;BME280;61530;51.158;0.880;2023-05-14T03:30:23;1018.92;;;9.4375;38.3257
73306;BME280;61530;51.158;0.880;2023-05-14T03:31:26;1018.9;;;9.5;38.5273
73306;BME280;61530;51.158;0.880;2023-05-14T03:32:30;1018.89;;;9.5625;38.0611
73306;BME280;61530;51.158;0.880;2023-05-14T03:33:35;1018.88;;;9.5;38.1531
73306;BME280;61530;51.158;0.880;2023-05-14T03:34:39;1018.88;;;9.5;38.2391
73306;BME280;61530;51.158;0.880;2023-05-14T03:35:42;1018.87;;;9.4375;37.5601
73306;BME280;61530;51.158;0.880;2023-05-14T03:36:45;1018.84;;;9.5625;38.5391
73306;BME280;61530;51.158;0.880;2023-05-14T03:37:51;1018.9;;;9.5;37.8719
73306;BME280;61530;51.158;0.880;2023-05-14T03:38:55;1018.87;;;9.5;37.8825
73306;BME280;61530;51.158;0.880;2023-05-14T03:39:58;1018.83;;;9.5;38.3266
73306;BME280;61530;51.158;0.880;2023-05-14T03:41:02;1018.87;;;9.4375;38.9188
73306;BME280;61530;51.158;0.880;2023-05-14T03:42:07;1018.86;;;9.5;38.0003
73306;BME280;61530;51.158;0.880;2023-05-14T03:43:10;1018.83;;;9.4375;39.3775
73306;BME280;61530;51.158;0.880;2023-05-14T03:44:14;1018.88;;;9.375;38.4814
73306;BME280;61530;51.158;0.880;2023-05-14T03:45:18;1018.84;;;9.5;38.8952
73306;BME280;61530;51.158;0.880;2023-05-14T03:46:23;1018.88;;;9.4375;38.1301
73306;BME280;61530;51.158;0.880;2023-05-14T03:47:27;1018.83;;;9.4375;39.1018
73306;BME280;61530;51.158;0.880;2023-05-14T03:48:30;1018.84;;;9.375;38.2273
73306;BME280;61530;51.158;0.880;2023-05-14T03:49:33;1018.82;;;9.5;38.5611
73306;BME280;61530;51.158;0.880;2023-05-14T03:50:39;1018.81;;;9.5;37.8239
73306;BME280;61530;51.158;0.880;2023-05-14T03:51:42;1018.81;;;9.4375;37.472
73306;BME280;61530;51.158;0.880;2023-05-14T03:52:46;1018.82;;;9.5625;37.1438
73306;BME280;61530;51.158;0.880;2023-05-14T03:53:49;1018.81;;;9.5625;37.4661
73306;BME280;61530;51.158;0.880;2023-05-14T03:54:55;1018.76;;;9.5625;37.4191
73306;BME280;61530;51.158;0.880;2023-05-14T03:55:58;1018.78;;;9.5625;37.2818
73306;BME280;61530;51.158;0.880;2023-05-14T03:57:02;1018.71;;;9.5625;37.5345
73306;BME280;61530;51.158;0.880;2023-05-14T03:58:06;1018.77;;;9.5;37.3978
73306;BME280;61530;51.158;0.880;2023-05-14T03:59:11;1018.77;;;9.625;37.8062
73306;BME280;61530;51.158;0.880;2023-05-14T04:00:15;1018.77;;;9.625;37.7713
73306;BME280;61530;51.158;0.880;2023-05-14T04:01:18;1018.76;;;9.625;37.3503
73306;BME280;61530;51.158;0.880;2023-05-14T04:02:21;1018.73;;;9.625;37.8051
73306;BME280;61530;51.158;0.880;2023-05-14T04:03:27;1018.73;;;9.625;36.9009
73306;BME280;61530;51.158;0.880;2023-05-14T04:04:31;1018.73;;;9.6875;37.8978
73306;BME280;61530;51.158;0.880;2023-05-14T04:05:34;1018.72;;;9.5625;37.5349
73306;BME280;61530;51.158;0.880;2023-05-14T04:06:37;1018.74;;;9.5625;37.9446
73306;BME280;61530;51.158;0.880;2023-05-14T04:07:43;1018.76;;;9.5625;37.6808
73306;BME280;61530;51.158;0.880;2023-05-14T04:08:46;1018.73;;;9.5;38.3419
73306;BME280;61530;51.158;0.880;2023-05-14T04:09:50;1018.73;;;9.5625;38.0384
73306;BME280;61530;51.158;0.880;2023-05-14T04:10:53;1018.7;;;9.4375;38.4115
73306;BME280;61530;51.158;0.880;2023-05-14T04:11:59;1018.7;;;9.5625;38.3368
73306;BME280;61530;51.158;0.880;2023-05-14T04:13:03;1018.7;;;9.5;38.2571
73306;BME280;61530;51.158;0.880;2023-05-14T04:14:06;1018.72;;;9.5;38.2848
73306;BME280;61530;51.158;0.880;2023-05-14T04:15:10;1018.74;;;9.5625;38.1069
73306;BME280;61530;51.158;0.880;2023-05-14T04:16:15;1018.75;;;9.5;38.1295
73306;BME280;61530;51.158;0.880;2023-05-14T04:17:18;1018.75;;;9.5;38.0082
73306;BME280;61530;51.158;0.880;2023-05-14T04:18:22;1018.77;;;9.5;37.5906
73306;BME280;61530;51.158;0.880;2023-05-14T04:19:25;1018.76;;;9.5625;38.113
73306;BME280;61530;51.158;0.880;2023-05-14T04:20:31;1018.78;;;9.5;37.8943
73306;BME280;61530;51.158;0.880;2023-05-14T04:21:35;1018.76;;;9.5;37.8251
73306;BME280;61530;51.158;0.880;2023-05-14T04:22:38;1018.77;;;9.4375;37.7678
73306;BME280;61530;51.158;0.880;2023-05-14T04:23:41;1018.8;;;9.5;38.078
73306;BME280;61530;51.158;0.880;2023-05-14T04:24:47;1018.77;;;9.5;39.211
73306;BME280;61530;51.158;0.880;2023-05-14T04:25:50;1018.82;;;9.4375;38.3203
73306;BME280;61530;51.158;0.880;2023-05-14T04:26:54;1018.84;;;9.4375;38.2276
73306;BME280;61530;51.158;0.880;2023-05-14T04:27:57;1018.86;;;9.5;37.6531
73306;BME280;61530;51.158;0.880;2023-05-14T04:29:03;1018.89;;;9.4375;38.0319
73306;BME280;61530;51.158;0.880;2023-05-14T04:30:08;1018.91;;;9.4375;37.6876
73306;BME280;61530;51.158;0.880;2023-05-14T04:31:10;1018.92;;;9.5625;38.366
73306;BME280;61530;51.158;0.880;2023-05-14T04:32:14;1018.91;;;9.5625;37.6864
73306;BME280;61530;51.158;0.880;2023-05-14T04:33:19;1018.92;;;9.5;38.2618
73306;BME280;61530;51.158;0.880;2023-05-14T04:34:22;1018.93;;;9.5;37.5835
73306;BME280;61530;51.158;0.880;2023-05-14T04:35:26;1018.95;;;9.5;38.5957
73306;BME280;61530;51.158;0.880;2023-05-14T04:36:29;1018.95;;;9.5;37.6299
73306;BME280;61530;51.158;0.880;2023-05-14T04:37:35;1018.97;;;9.4375;37.9335
73306;BME280;61530;51.158;0.880;2023-05-14T04:38:39;1018.96;;;9.375;37.847
73306;BME280;61530;51.158;0.880;2023-05-14T04:39:42;1018.98;;;9.5;38.3702
73306;BME280;61530;51.158;0.880;2023-05-14T04:40:46;1018.96;;;9.4375;37.6626
73306;BME280;61530;51.158;0.880;2023-05-14T04:41:51;1019.0;;;9.5;37.8305
73306;BME280;61530;51.158;0.880;2023-05-14T04:42:54;1018.99;;;9.5;37.7726
73306;BME280;61530;51.158;0.880;2023-05-14T04:44:01;1018.97;;;9.5;38.7971
73306;BME280;61530;51.158;0.880;2023-05-14T04:45:02;1018.95;;;9.4375;38.4008
73306;BME280;61530;51.158;0.880;2023-05-14T04:46:07;1018.96;;;9.5;38.3499
73306;BME280;61530;51.158;0.880;2023-05-14T04:47:11;1018.95;;;9.4375;38.6769
73306;BME280;61530;51.158;0.880;2023-05-14T04:48:14;1018.93;;;9.375;38.2977
73306;BME280;61530;51.158;0.880;2023-05-14T04:49:18;1018.9;;;9.4375;38.5505
73306;BME280;61530;51.158;0.880;2023-05-14T04:50:23;1018.88;;;9.4375;38.429
73306;BME280;61530;51.158;0.880;2023-05-14T04:51:26;1018.9;;;9.4375;38.1298
73306;BME280;61530;51.158;0.880;2023-05-14T04:52:30;1018.88;;;9.375;37.7326
73306;BME280;61530;51.158;0.880;2023-05-14T04:53:33;1018.9;;;9.5625;37.8469
73306;BME280;61530;51.158;0.880;2023-05-14T04:54:39;1018.86;;;9.4375;37.5762
73306;BME280;61530;51.158;0.880;2023-05-14T04:55:43;1018.84;;;9.5625;37.3744
73306;BME280;61530;51.158;0.880;2023-05-14T04:56:46;1018.83;;;9.5625;37.2475
73306;BME280;61530;51.158;0.880;2023-05-14T04:57:49;1018.81;;;9.4375;37.4222
73306;BME280;61530;51.158;0.880;2023-05-14T04:58:55;1018.83;;;9.4375;37.9342
73306;BME280;61530;51.158;0.880;2023-05-14T04:59:58;1018.83;;;9.375;37.5659
73306;BME280;61530;51.158;0.880;2023-05-14T05:01:03;1018.84;;;9.5;38.435
73306;BME280;61530;51.158;0.880;2023-05-14T05:02:05;1018.85;;;9.5;37.67
73306;BME280;61530;51.158;0.880;2023-05-14T05:03:11;1018.83;;;9.4375;38.2267
73306;BME280;61530;51.158;0.880;2023-05-14T05:04:15;1018.85;;;9.4375;37.5958
73306;BME280;61530;51.158;0.880;2023-05-14T05:05:18;1018.86;;;9.5;38.2046
73306;BME280;61530;51.158;0.880;2023-05-14T05:06:22;1018.88;;;9.5;37.56
73306;BME280;61530;51.158;0.880;2023-05-14T05:07:27;1018.88;;;9.4375;37.8409
73306;BME280;61530;51.158;0.880;2023-05-14T05:08:30;1018.87;;;9.4375;38.8587
73306;BME280;61530;51.158;0.880;2023-05-14T05:09:34;1018.88;;;9.4375;37.8695
73306;BME280;61530;51.158;0.880;2023-05-14T05:10:37;1018.89;;;9.5;37.3515
73306;BME280;61530;51.158;0.880;2023-05-14T05:11:43;1018.9;;;9.5;37.4432
73306;BME280;61530;51.158;0.880;2023-05-14T05:12:47;1018.92;;;9.4375;37.4437
73306;BME280;61530;51.158;0.880;2023-05-14T05:13:50;1018.94;;;9.5;37.2424
73306;BME280;61530;51.158;0.880;2023-05-14T05:14:53;1018.95;;;9.625;37.4509
73306;BME280;61530;51.158;0.880;2023-05-14T05:15:59;1018.93;;;9.5;38.0257
73306;BME280;61530;51.158;0.880;2023-05-14T05:17:03;1018.92;;;9.5;37.295
73306;BME280;61530;51.158;0.880;2023-05-14T05:18:06;1018.92;;;9.4375;37.8243
73306;BME280;61530;51.158;0.880;2023-05-14T05:19:09;1018.92;;;9.5;36.7785
73306;BME280;61530;51.158;0.880;2023-05-14T05:20:15;1018.93;;;9.375;37.6404
73306;BME280;61530;51.158;0.880;2023-05-14T05:21:19;1018.97;;;9.5;37.3924
73306;BME280;61530;51.158;0.880;2023-05-14T05:22:22;1018.98;;;9.5;37.7043
73306;BME280;61530;51.158;0.880;2023-05-14T05:23:25;1018.95;;;9.5;37.7892
73306;BME280;61530;51.158;0.880;2023-05-14T05:24:31;1018.93;;;9.4375;36.5992
73306;BME280;61530;51.158;0.880;2023-05-14T05:25:34;1018.92;;;9.5625;38.2722
73306;BME280;61530;51.158;0.880;2023-05-14T05:26:38;1018.9;;;9.5;37.5368
73306;BME280;61530;51.158;0.880;2023-05-14T05:27:41;1018.85;;;9.5625;37.4427
73306;BME280;61530;51.158;0.880;2023-05-14T05:28:47;1018.81;;;9.5625;36.8371
73306;BME280;61530;51.158;0.880;2023-05-14T05:29:51;1018.82;;;9.625;36.6641
73306;BME280;61530;51.158;0.880;2023-05-14T05:30:54;1018.85;;;9.625;35.7935
73306;BME280;61530;51.158;0.880;2023-05-14T05:31:58;1018.86;;;9.5625;36.3354
73306;BME280;61530;51.158;0.880;2023-05-14T05:33:03;1018.88;;;9.5625;36.751